Time;durP1;ratioP1;P1;durP2;ratioP2;P2;SDS_P1;SDS_P2;PMS_P1;PMS_P2;Temp;Humidity;BMP_temperature;BMP_pressure;BME280_temperature;BME280_humidity;BME280_pressure;Samples;Min_cycle;Max_cycle;Signal;HPM_P1;HPM_P2
2023/01/18 00:01:22;;;;;;;14.52;7.18;;;-2.90;99.90;;;-4.89;100.00;98256.22;4993528;28;20061;-70
2023/01/18 00:03:48;;;;;;;11.90;6.43;;;-3.10;99.90;;;-4.99;100.00;98255.66;4993965;28;20402;-71
2023/01/18 00:06:15;;;;;;;12.32;6.63;;;-3.20;99.90;;;-4.95;100.00;98246.31;5003000;28;20069;-70
2023/01/18 00:08:43;;;;;;;13.38;6.78;;;-3.20;99.90;;;-4.84;100.00;98243.22;4993894;28;20044;-70
2023/01/18 00:11:14;;;;;;;13.30;6.35;;;-3.10;99.90;;;-4.63;100.00;98242.59;4992755;28;20172;-70
2023/01/18 00:13:40;;;;;;;13.95;6.43;;;-2.90;99.90;;;-4.44;100.00;98242.28;4993536;28;20034;-71
2023/01/18 00:16:26;;;;;;;16.45;6.25;;;-2.70;99.90;;;-4.40;100.00;98241.72;4993717;28;20422;-70
2023/01/18 00:18:57;;;;;;;13.25;6.25;;;-2.60;99.90;;;-4.37;100.00;98238.75;4992241;28;20584;-69
2023/01/18 00:21:25;;;;;;;12.68;6.72;;;-2.60;99.90;;;-4.30;100.00;98235.34;4996400;28;20092;-70
2023/01/18 00:23:53;;;;;;;14.70;6.50;;;-2.50;99.90;;;-4.30;100.00;98235.34;4997283;28;20030;-70
2023/01/18 00:26:19;;;;;;;14.82;6.60;;;-2.50;99.90;;;-4.30;100.00;98236.16;4991157;28;20045;-70
2023/01/18 00:28:45;;;;;;;12.63;6.50;;;-2.50;99.90;;;-4.29;100.00;98226.34;4993200;28;20034;-70
2023/01/18 00:31:14;;;;;;;12.82;6.82;;;-2.50;99.90;;;-4.31;100.00;98233.69;5012543;28;20088;-70
2023/01/18 00:33:46;;;;;;;14.50;6.18;;;-2.50;99.90;;;-4.35;100.00;98228.75;4992806;28;20035;-70
2023/01/18 00:36:14;;;;;;;13.55;6.35;;;-2.50;99.90;;;-4.37;100.00;98229.91;5007143;28;20042;-71
2023/01/18 00:38:39;;;;;;;16.77;7.20;;;-2.50;99.90;;;-4.41;100.00;98226.78;4993692;28;20389;-71
2023/01/18 00:41:05;;;;;;;16.70;6.80;;;-2.50;99.90;;;-4.39;100.00;98226.59;5007824;28;20069;-71
2023/01/18 00:43:40;;;;;;;15.80;7.47;;;-2.60;99.90;;;-4.50;100.00;98225.19;4993653;28;20501;-71
2023/01/18 00:46:09;;;;;;;14.30;6.63;;;-2.60;99.90;;;-4.62;100.00;98224.78;4996552;28;20050;-71
2023/01/18 00:48:38;;;;;;;15.43;7.22;;;-2.80;99.90;;;-4.71;100.00;98217.88;4996769;28;20486;-71
2023/01/18 00:51:08;;;;;;;15.38;7.03;;;-2.80;99.90;;;-4.78;100.00;98215.91;4997219;28;20477;-71
2023/01/18 00:53:36;;;;;;;17.13;7.25;;;-2.90;99.90;;;-4.83;100.00;98210.28;4996593;28;20030;-71
2023/01/18 00:56:05;;;;;;;;;;;-3.00;99.90;;;-4.89;100.00;98212.84;4997477;28;20041;-71
2023/01/18 00:58:31;;;;;;;18.13;6.68;;;-3.10;99.90;;;-4.97;100.00;98213.75;4996657;28;19918;-71
2023/01/18 01:00:57;;;;;;;13.25;7.05;;;-3.10;99.90;;;-5.00;100.00;98219.41;5009120;28;20042;-71
2023/01/18 01:03:23;;;;;;;11.65;6.40;;;-3.20;99.90;;;-5.08;100.00;98221.09;4996240;28;20045;-71
2023/01/18 01:08:33;;;;;;;12.63;6.20;;;-3.30;99.90;;;-5.14;100.00;98223.66;4993925;28;20080;-69
2023/01/18 01:11:09;;;;;;;14.73;6.75;;;-3.30;99.90;;;-5.14;100.00;98221.00;4996760;28;20125;-72
2023/01/18 01:27:19;;;;;;;16.38;7.47;;;-3.50;99.90;;;-5.05;100.00;98226.06;4995903;28;20141;-70
2023/01/18 01:29:45;;;;;;;18.90;8.35;;;-3.20;99.90;;;-5.00;100.00;98220.22;4996574;28;20038;-70
2023/01/18 01:32:11;;;;;;;19.00;7.40;;;-3.10;99.90;;;-5.01;100.00;98220.41;4995271;28;20039;-70
2023/01/18 01:34:37;;;;;;;16.90;7.63;;;-3.20;99.90;;;-5.13;100.00;98226.13;4995744;28;20049;-70
2023/01/18 01:37:03;;;;;;;15.13;6.90;;;-3.30;99.90;;;-5.24;100.00;98232.66;4995339;28;20050;-70
2023/01/18 01:39:29;;;;;;;18.63;7.32;;;-3.40;99.90;;;-5.27;100.00;98230.34;4995339;28;20034;-70
2023/01/18 01:41:55;;;;;;;10.82;6.30;;;-3.50;99.90;;;-5.36;100.00;98220.78;4994035;28;20045;-70
2023/01/18 01:44:24;;;;;;;16.35;6.95;;;-3.50;99.90;;;-5.49;100.00;98224.78;5010226;28;20054;-70
2023/01/18 01:47:11;;;;;;;11.95;6.60;;;-3.60;99.90;;;-5.66;100.00;98232.00;5009954;28;20121;-70
2023/01/18 01:49:47;;;;;;;16.60;7.00;;;-3.80;99.90;;;-5.74;100.00;98242.66;4993658;28;20041;-70
2023/01/18 01:52:20;;;;;;;12.38;6.03;;;-3.90;99.90;;;-5.75;100.00;98243.66;4992588;28;20042;-70
2023/01/18 01:55:14;;;;;;;15.75;7.00;;;-3.90;99.90;;;-5.88;100.00;98249.50;4992085;28;20034;-70
2023/01/18 01:57:58;;;;;;;14.00;6.45;;;-4.00;99.90;;;-5.96;100.00;98250.34;4995019;28;20057;-70
2023/01/18 02:00:24;;;;;;;11.75;6.07;;;-4.10;99.90;;;-6.09;100.00;98248.25;5003184;28;20034;-70
2023/01/18 02:02:59;;;;;;;16.40;6.28;;;-4.20;99.90;;;-6.21;100.00;98254.91;4993455;28;20137;-70
2023/01/18 02:05:27;;;;;;;18.58;6.85;;;-4.30;99.90;;;-6.24;100.00;98245.47;4993740;28;20482;-71
2023/01/18 02:07:57;;;;;;;12.73;6.22;;;-4.30;99.90;;;-6.31;100.00;98255.09;4994836;28;20030;-71
2023/01/18 02:10:22;;;;;;;13.43;6.47;;;-4.40;99.90;;;-6.34;100.00;98255.44;4994330;28;20042;-71
2023/01/18 02:12:52;;;;;;;16.77;6.72;;;-4.40;99.90;;;-6.24;100.00;98252.56;4993186;28;20061;-71
2023/01/18 02:15:23;;;;;;;14.38;7.13;;;-4.30;99.90;;;-6.13;100.00;98252.25;4993760;28;20050;-71
2023/01/18 02:18:22;;;;;;;16.35;7.18;;;-4.20;99.90;;;-6.15;100.00;98258.72;4993346;28;20034;-71
2023/01/18 02:21:19;;;;;;;17.47;6.63;;;-4.30;99.90;;;-6.05;100.00;98242.59;4993822;28;20035;-71
2023/01/18 02:24:10;;;;;;;13.18;6.72;;;-4.20;99.90;;;-5.82;100.00;98248.00;4994956;28;20042;-71
2023/01/18 02:26:52;;;;;;;16.13;7.50;;;-3.90;99.90;;;-5.74;100.00;98253.28;4995727;28;20786;-71
2023/01/18 02:29:58;;;;;;;17.15;7.82;;;-3.80;99.90;;;-5.73;100.00;98251.44;4992313;28;20052;-71
2023/01/18 02:32:54;;;;;;;14.60;7.57;;;-3.80;99.90;;;-5.69;100.00;98256.25;5006841;28;20074;-71
2023/01/18 02:35:35;;;;;;;15.60;6.97;;;-3.80;99.90;;;-5.58;100.00;98254.22;4994873;28;20041;-71
2023/01/18 02:38:19;;;;;;;20.55;8.32;;;-3.70;99.90;;;-5.60;100.00;98251.75;5009656;28;20121;-71
2023/01/18 02:41:15;;;;;;;19.13;7.75;;;-3.70;99.90;;;-5.62;100.00;98248.44;4995000;28;20026;-71
2023/01/18 02:46:32;;;;;;;17.40;7.93;;;-3.90;99.90;;;-5.69;100.00;98250.94;4995116;28;20072;-71
2023/01/18 02:49:05;;;;;;;15.95;8.02;;;-3.80;99.90;;;-5.71;100.00;98247.63;4995136;28;20480;-71
2023/01/18 02:51:31;;;;;;;16.42;7.70;;;-3.80;99.90;;;-5.72;100.00;98251.28;5006577;28;20037;-70
2023/01/18 02:53:58;;;;;;;15.48;7.53;;;-3.80;99.90;;;-5.71;100.00;98254.75;5014992;28;20161;-71
2023/01/18 02:56:36;;;;;;;15.10;7.17;;;-3.90;99.90;;;-5.67;100.00;98258.75;5001655;28;20042;-71
2023/01/18 02:59:22;;;;;;;19.50;8.18;;;-3.80;99.90;;;-5.71;100.00;98252.94;5008666;28;20046;-71
2023/01/18 03:01:53;;;;;;;19.58;8.65;;;-3.80;99.90;;;-5.60;100.00;98259.72;4994211;28;20033;-71
2023/01/18 03:04:30;;;;;;;16.38;8.52;;;-3.70;99.90;;;-5.53;100.00;98258.03;5016116;28;20489;-71
2023/01/18 03:07:09;;;;;;;16.02;8.13;;;-3.70;99.90;;;-5.48;100.00;98257.53;5008728;28;20043;-70
2023/01/18 03:09:37;;;;;;;21.10;8.45;;;-3.70;99.90;;;-5.50;100.00;98263.00;4993872;28;20062;-69
2023/01/18 03:12:44;;;;;;;17.50;8.43;;;-3.70;99.90;;;-5.58;100.00;98264.84;4992058;28;20099;-70
2023/01/18 03:15:30;;;;;;;17.77;8.35;;;-3.80;99.90;;;-5.57;100.00;98264.69;4997471;28;20550;-70
2023/01/18 03:18:10;;;;;;;18.40;8.02;;;-3.80;99.90;;;-5.74;100.00;98261.25;4980806;28;20042;-70
2023/01/18 03:20:45;;;;;;;21.50;8.73;;;-3.90;99.90;;;-5.74;100.00;98263.06;4993596;28;20042;-70
2023/01/18 03:23:39;;;;;;;18.23;7.70;;;-4.00;99.90;;;-5.90;100.00;98254.16;5006324;28;20451;-70
2023/01/18 03:26:16;;;;;;;16.02;7.10;;;-4.10;99.90;;;-6.10;100.00;98265.19;4993570;28;20156;-70
2023/01/18 03:34:50;;;;;;;17.08;7.20;;;-4.30;99.90;;;-6.14;100.00;98255.06;4994177;28;20038;-69
2023/01/18 03:37:26;;;;;;;14.88;7.82;;;-4.30;99.90;;;-6.22;100.00;98261.22;4993826;28;20454;-71
2023/01/18 03:40:10;;;;;;;12.98;7.15;;;-4.30;99.90;;;-6.30;100.00;98272.66;4993799;28;20124;-71
2023/01/18 03:43:09;;;;;;;14.90;7.15;;;-4.40;99.90;;;-6.39;100.00;98269.19;4993816;28;20545;-71
2023/01/18 03:45:43;;;;;;;16.25;6.82;;;-4.50;99.90;;;-6.46;100.00;98273.50;5008577;28;20061;-71
2023/01/18 03:48:10;;;;;;;18.65;7.90;;;-4.60;99.90;;;-6.55;100.00;98269.16;4993525;28;20378;-71
2023/01/18 03:51:23;;;;;;;17.35;7.35;;;-4.70;99.90;;;-6.67;100.00;98276.63;4992027;28;20038;-71
2023/01/18 03:54:03;;;;;;;10.95;5.95;;;-4.80;99.90;;;-6.78;100.00;98275.09;5002625;28;20558;-71
2023/01/18 03:56:49;;;;;;;16.27;6.80;;;-4.80;99.90;;;-6.73;100.00;98280.78;4992942;28;20474;-70
2023/01/18 03:59:15;;;;;;;15.15;6.65;;;-4.90;99.90;;;-6.47;100.00;98276.31;4998734;28;20042;-71
2023/01/18 04:01:43;;;;;;;21.30;7.57;;;-4.70;99.90;;;-5.89;100.00;98276.22;4993591;28;20042;-70
2023/01/18 04:04:10;;;;;;;16.10;7.68;;;-4.30;99.90;;;-6.13;100.00;98267.34;4993020;28;20042;-71
2023/01/18 04:06:35;;;;;;;17.75;7.95;;;-4.30;99.90;;;-6.21;100.00;98279.63;4993026;28;20457;-72
2023/01/18 04:09:01;;;;;;;15.40;7.93;;;-4.40;99.90;;;-6.28;100.00;98268.03;4993919;28;20125;-72
2023/01/18 04:11:27;;;;;;;14.18;7.20;;;-4.40;99.90;;;-6.43;100.00;98282.94;4992235;28;20038;-72
2023/01/18 04:13:53;;;;;;;16.73;7.15;;;-4.50;99.90;;;-6.58;100.00;98291.56;4992763;28;20041;-71
2023/01/18 04:16:18;;;;;;;14.57;6.95;;;-4.60;99.90;;;-6.68;100.00;98290.88;5007378;28;20057;-71
2023/01/18 04:18:44;;;;;;;16.83;7.45;;;-4.60;99.90;;;-6.73;100.00;98293.19;4995832;28;20033;-71
2023/01/18 04:21:10;;;;;;;17.58;7.28;;;-4.70;99.90;;;-6.66;100.00;98294.19;4994704;28;20478;-71
2023/01/18 04:23:35;;;;;;;19.45;8.70;;;-4.70;99.90;;;-6.39;100.00;98301.03;4996042;28;20042;-71
2023/01/18 04:26:02;;;;;;;19.85;8.60;;;-4.60;99.90;;;-6.13;100.00;98296.53;4997549;28;20401;-71
2023/01/18 04:28:27;;;;;;;21.65;9.20;;;-4.30;99.90;;;-5.87;100.00;98308.75;4996501;28;20038;-71
2023/01/18 04:30:55;;;;;;;25.35;9.00;;;-4.00;99.90;;;-5.63;100.00;98314.03;4996904;28;20042;-71
2023/01/18 04:33:25;;;;;;;;;;;-3.80;99.90;;;-5.32;100.00;98314.25;5009390;28;20160;-71
2023/01/18 04:35:53;;;;;;;22.58;9.02;;;-3.50;99.90;;;-5.22;100.00;98306.94;4995877;28;19980;-71
2023/01/18 04:38:19;;;;;;;20.98;9.07;;;-3.30;99.90;;;-5.10;100.00;98312.72;4999311;28;20041;-72
2023/01/18 04:40:45;;;;;;;23.55;9.82;;;-3.20;99.90;;;-5.01;100.00;98309.00;4996674;28;20376;-72
2023/01/18 04:43:11;;;;;;;19.95;9.77;;;-3.10;99.90;;;-4.94;100.00;98311.78;4996256;28;20042;-70
2023/01/18 04:45:37;;;;;;;21.27;10.88;;;-3.00;99.90;;;-4.91;100.00;98312.28;4996768;28;20465;-72
2023/01/18 04:48:03;;;;;;;17.83;9.73;;;-3.00;99.90;;;-4.87;100.00;98318.06;5003242;28;20774;-71
2023/01/18 04:50:29;;;;;;;22.55;10.48;;;-3.00;99.90;;;-4.87;100.00;98318.06;5012532;28;20051;-72
2023/01/18 04:52:54;;;;;;;27.00;10.48;;;-3.00;99.90;;;-4.82;100.00;98330.84;5027480;28;20038;-71
2023/01/18 04:55:20;;;;;;;25.63;10.13;;;-3.00;99.90;;;-4.83;100.00;98321.22;5024046;28;20512;-71
2023/01/18 04:57:52;;;;;;;23.45;10.95;;;-3.00;99.90;;;-4.83;100.00;98329.19;4996012;28;20045;-70
2023/01/18 05:00:18;;;;;;;23.17;9.50;;;-3.00;99.90;;;-4.82;100.00;98329.00;5005215;28;20081;-70
2023/01/18 05:02:44;;;;;;;22.25;10.30;;;-3.00;99.90;;;-4.83;100.00;98332.69;4994004;28;20043;-70
2023/01/18 05:05:09;;;;;;;23.85;10.18;;;-3.00;99.90;;;-4.90;100.00;98345.03;5007485;28;20045;-72
2023/01/18 05:07:35;;;;;;;23.80;10.27;;;-3.00;99.90;;;-4.92;100.00;98341.72;5010861;28;20410;-70
2023/01/18 05:10:02;;;;;;;21.98;10.48;;;-3.00;99.90;;;-4.97;100.00;98347.53;4995969;28;20045;-70
2023/01/18 05:12:29;;;;;;;22.03;9.60;;;-3.10;99.90;;;-5.03;100.00;98348.25;4996548;28;20047;-70
2023/01/18 05:14:55;;;;;;;20.67;9.45;;;-3.10;99.90;;;-5.01;100.00;98345.41;4995702;28;20030;-71
2023/01/18 05:17:26;;;;;;;23.23;10.27;;;-3.20;99.90;;;-4.97;100.00;98362.69;5002569;28;20145;-70
2023/01/18 05:19:55;;;;;;;18.50;8.85;;;-3.10;99.90;;;-4.88;100.00;98356.31;5004792;28;20034;-71
2023/01/18 05:22:21;;;;;;;22.35;9.82;;;-3.00;99.90;;;-4.83;100.00;98364.59;5004201;28;20038;-70
2023/01/18 05:24:48;;;;;;;17.98;9.80;;;-3.00;99.90;;;-4.81;100.00;98367.09;4995029;28;20536;-71
2023/01/18 05:27:14;;;;;;;21.67;9.60;;;-3.00;99.90;;;-4.83;100.00;98369.91;5002416;28;20038;-70
2023/01/18 05:29:40;;;;;;;20.52;9.15;;;-3.00;99.90;;;-4.87;100.00;98365.94;4997388;28;20049;-71
2023/01/18 05:32:06;;;;;;;22.13;10.20;;;-3.00;99.90;;;-4.87;100.00;98376.59;4995781;28;20031;-71
2023/01/18 05:34:32;;;;;;;21.45;9.55;;;-3.00;99.90;;;-4.84;100.00;98373.59;5002591;28;20042;-71
2023/01/18 05:36:58;;;;;;;23.77;9.75;;;-3.00;99.90;;;-4.77;100.00;98373.72;4995370;28;20164;-70
2023/01/18 05:39:24;;;;;;;17.75;8.55;;;-2.90;99.90;;;-4.77;100.00;98379.06;4995324;28;20045;-71
2023/01/18 05:41:50;;;;;;;19.85;8.88;;;-2.90;99.90;;;-4.76;100.00;98378.03;5004924;28;20448;-71
2023/01/18 05:44:15;;;;;;;23.52;9.45;;;-2.90;99.90;;;-4.71;100.00;98378.34;4995115;28;20050;-71
2023/01/18 05:46:41;;;;;;;22.05;9.18;;;-2.90;99.90;;;-4.70;100.00;98382.66;4995382;28;20042;-71
2023/01/18 05:49:07;;;;;;;24.27;9.70;;;-2.90;99.90;;;-4.71;100.00;98385.50;5002917;28;20041;-71
2023/01/18 05:51:34;;;;;;;20.70;9.05;;;-2.90;99.90;;;-4.80;100.00;98387.38;5008459;28;20038;-72
2023/01/18 05:54:00;;;;;;;19.10;8.45;;;-2.90;99.90;;;-4.85;100.00;98393.22;5006543;28;20490;-72
2023/01/18 05:56:25;;;;;;;18.92;9.02;;;-3.00;99.90;;;-4.92;100.00;98389.59;4999981;28;20038;-71
2023/01/18 05:58:51;;;;;;;22.40;9.13;;;-3.00;99.90;;;-4.91;100.00;98399.22;5010502;28;20030;-72
2023/01/18 06:01:17;;;;;;;19.92;9.55;;;-3.00;99.90;;;-4.92;100.00;98397.56;4995087;28;20050;-72
2023/01/18 06:03:43;;;;;;;17.23;8.05;;;-3.00;99.90;;;-4.94;100.00;98396.91;5023491;28;20034;-72
2023/01/18 06:06:08;;;;;;;18.10;8.52;;;-3.00;99.90;;;-4.94;100.00;98399.56;5005773;28;20093;-72
2023/01/18 06:08:34;;;;;;;19.60;9.00;;;-3.10;99.90;;;-4.98;100.00;98403.59;4996151;28;20038;-72
2023/01/18 06:11:00;;;;;;;17.17;8.52;;;-3.10;99.90;;;-5.07;100.00;98414.22;5016501;28;20104;-72
2023/01/18 06:13:30;;;;;;;17.27;7.97;;;-3.20;99.90;;;-5.11;100.00;98426.22;4997277;28;20589;-72
2023/01/18 06:15:58;;;;;;;16.25;7.65;;;-3.20;99.90;;;-5.17;100.00;98426.06;4995003;28;20030;-72
2023/01/18 06:18:26;;;;;;;22.08;8.25;;;-3.30;99.90;;;-5.25;100.00;98430.41;4999165;28;20046;-71
2023/01/18 06:20:53;;;;;;;;;;;-3.30;99.90;;;-5.18;100.00;98425.25;4995374;28;20034;-72
2023/01/18 06:23:20;;;;;;;24.45;7.95;;;-3.30;99.90;;;-5.18;100.00;98435.03;4993046;28;19964;-71
2023/01/18 06:25:45;;;;;;;21.15;8.52;;;-3.30;99.90;;;-5.19;100.00;98439.53;4994464;28;20554;-71
2023/01/18 06:28:11;;;;;;;21.55;8.88;;;-3.20;99.90;;;-5.13;100.00;98432.72;5009356;28;20045;-70
2023/01/18 06:30:37;;;;;;;22.15;9.07;;;-3.20;99.90;;;-4.93;100.00;98438.47;4994323;28;20042;-70
2023/01/18 06:33:05;;;;;;;19.00;8.63;;;-3.20;99.90;;;-4.79;100.00;98443.06;4994286;28;20071;-71
2023/01/18 06:35:32;;;;;;;22.88;8.68;;;-3.00;99.90;;;-4.63;100.00;98438.69;4994287;28;20046;-72
2023/01/18 06:37:58;;;;;;;22.65;9.05;;;-2.80;99.90;;;-4.44;100.00;98447.28;5008888;28;20038;-70
2023/01/18 06:40:24;;;;;;;18.65;8.13;;;-2.70;99.90;;;-4.34;100.00;98453.19;5008653;28;20149;-71
2023/01/18 06:42:50;;;;;;;16.52;7.72;;;-2.50;99.90;;;-4.34;100.00;98459.38;4993486;28;20056;-71
2023/01/18 06:45:18;;;;;;;20.50;8.65;;;-2.50;99.90;;;-4.33;100.00;98465.50;4995303;28;20038;-71
2023/01/18 06:47:44;;;;;;;;;;;-2.50;99.90;;;-4.34;100.00;98458.53;4995193;28;20042;-71
2023/01/18 06:50:10;;;;;;;17.15;7.25;;;-2.50;99.90;;;-4.32;100.00;98469.81;4992008;28;20020;-71
2023/01/18 06:52:36;;;;;;;15.70;7.80;;;-2.50;99.90;;;-4.36;100.00;98466.69;4994321;28;20034;-71
2023/01/18 06:55:02;;;;;;;17.25;7.45;;;-2.50;99.90;;;-4.38;100.00;98473.19;5010291;28;20046;-71
2023/01/18 06:57:28;;;;;;;18.13;7.22;;;-2.50;99.90;;;-4.43;100.00;98483.53;4994168;28;20520;-71
2023/01/18 06:59:54;;;;;;;17.05;7.45;;;-2.60;99.90;;;-4.50;100.00;98480.72;4994709;28;20113;-71
2023/01/18 07:02:20;;;;;;;15.20;6.85;;;-2.60;99.90;;;-4.59;100.00;98476.44;5001527;28;20042;-72
2023/01/18 07:04:46;;;;;;;16.80;7.22;;;-2.70;99.90;;;-4.72;100.00;98487.63;4996638;28;20602;-71
2023/01/18 07:07:13;;;;;;;16.27;6.97;;;-2.90;99.90;;;-4.79;100.00;98482.97;4994076;28;20065;-70
2023/01/18 07:09:39;;;;;;;17.87;7.40;;;-2.90;99.90;;;-4.75;100.00;98496.78;4994434;28;20042;-71
2023/01/18 07:12:05;;;;;;;17.38;7.55;;;-2.90;99.90;;;-4.66;100.00;98503.72;4994153;28;20034;-70
2023/01/18 07:14:31;;;;;;;19.13;7.45;;;-2.90;99.90;;;-4.56;100.00;98505.38;4994604;28;20105;-73
2023/01/18 07:16:56;;;;;;;14.75;7.22;;;-2.80;99.90;;;-4.44;100.00;98513.81;5008253;28;20046;-71
2023/01/18 07:19:22;;;;;;;18.58;7.47;;;-2.70;99.90;;;-4.48;100.00;98518.66;5006416;28;20034;-71
2023/01/18 07:21:49;;;;;;;14.98;7.53;;;-2.60;99.90;;;-4.54;100.00;98525.47;4990012;28;20037;-71
2023/01/18 07:24:14;;;;;;;16.83;7.93;;;-2.70;99.90;;;-4.59;100.00;98522.50;5002788;28;20031;-71
2023/01/18 07:26:40;;;;;;;16.88;6.95;;;-2.70;99.90;;;-4.53;100.00;98519.16;5008075;28;20510;-72
2023/01/18 07:29:06;;;;;;;18.80;8.52;;;-2.70;99.90;;;-4.46;100.00;98529.97;5010566;28;20402;-71
2023/01/18 07:31:31;;;;;;;14.23;7.00;;;-2.70;99.90;;;-4.44;100.00;98543.09;5006880;28;20037;-70
2023/01/18 07:33:57;;;;;;;15.32;7.60;;;-2.60;99.90;;;-4.40;100.00;98547.09;5008156;28;20046;-70
2023/01/18 07:36:23;;;;;;;16.38;7.35;;;-2.60;99.90;;;-4.43;100.00;98547.44;5006204;28;20535;-72
2023/01/18 07:38:48;;;;;;;14.05;6.78;;;-2.60;99.90;;;-4.44;100.00;98554.56;5023178;28;20041;-74
2023/01/18 07:41:15;;;;;;;17.60;7.50;;;-2.70;99.90;;;-4.47;100.00;98554.91;5002933;28;20515;-72
2023/01/18 07:43:44;;;;;;;18.75;7.72;;;-2.60;99.90;;;-4.46;100.00;98563.75;5003172;28;20053;-72
2023/01/18 07:46:15;;;;;;;16.00;7.68;;;-2.70;99.90;;;-4.48;100.00;98564.75;4993417;28;20048;-71
2023/01/18 07:48:41;;;;;;;16.95;7.60;;;-2.60;99.90;;;-4.51;100.00;98562.44;4994408;28;20045;-72
2023/01/18 07:51:09;;;;;;;18.25;8.27;;;-2.60;99.90;;;-4.43;100.00;98571.38;4998945;28;20437;-71
2023/01/18 07:53:36;;;;;;;;;;;-2.60;99.90;;;-4.34;100.00;98573.88;4995734;28;20038;-70
2023/01/18 07:56:05;;;;;;;21.98;7.03;;;-2.50;99.90;;;-4.16;100.00;98566.63;5003164;28;22054;-71
2023/01/18 07:58:31;;;;;;;18.27;8.02;;;-2.40;99.90;;;-4.03;100.00;98574.06;5014022;28;20045;-70
2023/01/18 08:01:08;;;;;;;19.23;7.68;;;-2.30;99.90;;;-3.93;100.00;98574.69;5006498;28;20045;-71
2023/01/18 08:03:35;;;;;;;18.33;7.75;;;-2.20;99.90;;;-3.90;100.00;98575.19;5009168;28;20173;-72
2023/01/18 08:06:03;;;;;;;17.53;7.90;;;-2.10;99.90;;;-3.76;100.00;98583.44;5007722;28;20046;-70
2023/01/18 08:08:30;;;;;;;16.05;6.90;;;-2.00;99.90;;;-3.71;100.00;98585.56;5014213;28;20077;-71
2023/01/18 08:10:58;;;;;;;22.75;7.65;;;-2.00;99.90;;;-3.68;100.00;98586.06;5011139;28;20056;-71
2023/01/18 08:13:26;;;;;;;13.60;7.20;;;-1.90;99.90;;;-3.69;100.00;98586.22;5009303;28;20359;-72
2023/01/18 08:15:54;;;;;;;17.95;7.82;;;-1.90;99.90;;;-3.67;100.00;98592.22;5023142;28;20577;-71
2023/01/18 08:18:20;;;;;;;15.40;6.63;;;-1.90;99.90;;;-3.58;100.00;98593.84;5009026;28;20389;-71
2023/01/18 08:20:48;;;;;;;17.48;7.78;;;-1.80;99.90;;;-3.55;100.00;98595.31;5007504;28;20027;-71
2023/01/18 08:23:15;;;;;;;19.35;8.32;;;-1.80;99.90;;;-3.51;100.00;98604.63;4998755;28;20494;-73
2023/01/18 08:25:42;;;;;;;19.10;7.40;;;-1.70;99.90;;;-3.44;100.00;98594.09;5007381;28;20046;-72
2023/01/18 08:28:09;;;;;;;19.87;7.53;;;-1.70;99.90;;;-3.43;100.00;98603.75;5009130;28;20089;-71
2023/01/18 08:30:41;;;;;;;19.75;8.27;;;-1.70;99.90;;;-3.38;100.00;98615.53;5012929;28;20291;-71
2023/01/18 08:33:08;;;;;;;16.75;7.78;;;-1.60;99.90;;;-3.37;100.00;98619.88;5002851;28;20401;-71
2023/01/18 08:35:41;;;;;;;18.42;7.78;;;-1.60;99.90;;;-3.24;100.00;98616.63;4996086;28;20100;-72
2023/01/18 08:38:08;;;;;;;16.25;7.65;;;-1.50;99.90;;;-3.18;100.00;98617.75;5006383;28;20038;-73
2023/01/18 08:40:34;;;;;;;16.65;7.97;;;-1.40;99.90;;;-3.05;100.00;98619.81;5010974;28;20061;-74
2023/01/18 08:43:02;;;;;;;19.88;8.10;;;-1.40;99.90;;;-2.97;100.00;98619.75;5011313;28;20064;-74
2023/01/18 08:45:29;;;;;;;19.17;7.85;;;-1.30;99.90;;;-2.87;100.00;98630.19;5009703;28;20116;-73
2023/01/18 08:47:57;;;;;;;14.52;7.63;;;-1.20;99.90;;;-2.82;100.00;98627.81;4995308;28;20144;-73
2023/01/18 08:50:24;;;;;;;16.25;7.72;;;-1.10;99.90;;;-2.78;100.00;98631.78;5024780;28;20041;-73
2023/01/18 08:52:52;;;;;;;16.02;8.23;;;-1.10;99.90;;;-2.70;100.00;98635.38;5012392;28;20037;-73
2023/01/18 08:55:20;;;;;;;18.92;8.13;;;-1.00;99.90;;;-2.64;100.00;98640.84;5006676;28;20402;-73
2023/01/18 08:57:47;;;;;;;;;;;-0.90;99.90;;;-2.57;100.00;98648.97;5023872;28;20054;-73
2023/01/18 09:00:14;;;;;;;17.83;7.43;;;-0.80;99.90;;;-2.50;100.00;98649.88;5010197;28;20071;-73
2023/01/18 09:02:39;;;;;;;19.93;8.83;;;-0.80;99.90;;;-2.44;100.00;98650.16;5008298;28;20041;-73
2023/01/18 09:05:05;;;;;;;16.27;8.07;;;-0.70;99.90;;;-2.37;100.00;98651.13;5010195;28;20295;-74
2023/01/18 09:07:32;;;;;;;17.45;8.35;;;-0.60;99.90;;;-2.32;100.00;98654.06;5011964;28;20489;-73
2023/01/18 09:09:58;;;;;;;17.08;7.75;;;-0.60;99.90;;;-2.21;100.00;98653.63;5004441;28;20026;-73
2023/01/18 09:12:24;;;;;;;16.52;7.85;;;-0.50;99.90;;;-2.15;100.00;98660.09;4997882;28;20037;-73
2023/01/18 09:14:49;;;;;;;14.88;7.72;;;-0.40;99.90;;;-2.13;100.00;98649.19;5025950;28;20034;-73
2023/01/18 09:17:18;;;;;;;17.77;7.88;;;-0.30;99.90;;;-1.98;100.00;98659.91;5012579;28;20045;-73
2023/01/18 09:19:44;;;;;;;19.65;8.23;;;-0.20;99.90;;;-1.93;100.00;98666.34;5011299;28;20097;-73
2023/01/18 09:22:10;;;;;;;18.63;8.07;;;-0.10;99.90;;;-1.82;100.00;98669.59;5009283;28;20034;-73
2023/01/18 09:24:36;;;;;;;18.45;9.43;;;0.00;99.90;;;-1.75;100.00;98671.31;5009925;28;20394;-73
2023/01/18 09:27:06;;;;;;;17.13;8.80;;;0.00;99.90;;;-1.69;100.00;98676.97;5011410;28;20045;-73
2023/01/18 09:29:31;;;;;;;15.32;8.30;;;0.10;99.90;;;-1.60;100.00;98675.84;5013513;28;20038;-72
2023/01/18 09:31:58;;;;;;;16.02;8.80;;;0.20;99.90;;;-1.54;100.00;98675.09;5018162;28;20090;-73
2023/01/18 09:34:24;;;;;;;15.90;8.32;;;0.20;99.90;;;-1.48;100.00;98678.88;4998445;28;20509;-73
2023/01/18 09:36:51;;;;;;;16.13;7.80;;;0.30;99.90;;;-1.38;100.00;98679.38;4995984;28;20049;-72
2023/01/18 09:39:20;;;;;;;19.75;7.93;;;0.40;99.90;;;-1.24;100.00;98680.38;4995964;28;20030;-73
2023/01/18 09:42:22;;;;;;;15.68;7.70;;;0.60;99.90;;;-1.12;100.00;98678.03;4995711;28;20034;-73
2023/01/18 09:44:54;;;;;;;21.00;8.77;;;0.70;99.90;;;-0.97;100.00;98683.34;4982458;28;20046;-73
2023/01/18 09:47:42;;;;;;;18.40;8.02;;;0.80;99.90;;;-0.91;100.00;98682.59;5010746;28;20048;-74
2023/01/18 09:50:18;;;;;;;15.43;7.80;;;0.90;99.90;;;-0.74;100.00;98680.50;4995855;28;20065;-73
2023/01/18 09:53:12;;;;;;;19.50;8.55;;;1.10;99.90;;;-0.65;100.00;98685.72;4995497;28;20841;-74
2023/01/18 09:56:06;;;;;;;14.80;8.77;;;1.30;99.90;;;-0.56;100.00;98689.91;4999580;28;20042;-73
2023/01/18 09:59:19;;;;;;;13.43;7.68;;;1.50;99.90;;;-0.42;100.00;98690.03;4995297;28;20082;-72
2023/01/18 10:01:47;;;;;;;16.25;7.43;;;1.80;99.90;;;-0.25;100.00;98694.09;5009907;28;20038;-72
2023/01/18 10:04:41;;;;;;;17.60;8.32;;;1.90;99.90;;;-0.07;100.00;98688.25;4996395;28;20046;-72
2023/01/18 10:07:15;;;;;;;16.17;8.25;;;2.00;99.90;;;0.05;100.00;98687.69;4995460;28;20520;-72
2023/01/18 10:09:48;;;;;;;15.20;7.25;;;2.00;99.90;;;0.28;100.00;98693.63;4994230;28;20045;-72
2023/01/18 10:12:36;;;;;;;17.92;7.90;;;2.20;99.90;;;0.52;100.00;98693.31;4995287;28;20037;-72
2023/01/18 10:15:16;;;;;;;17.05;8.00;;;2.50;99.90;;;0.82;100.00;98693.06;4994609;28;20426;-71
2023/01/18 10:17:44;;;;;;;13.07;7.50;;;2.60;99.90;;;1.15;96.15;98690.44;4994385;28;20030;-72
2023/01/18 10:20:18;;;;;;;;;;;2.80;99.90;;;1.53;95.32;98696.28;4996465;28;20037;-72
2023/01/18 10:23:14;;;;;;;16.27;7.50;;;3.00;99.90;;;1.90;89.93;98683.25;4995062;28;20010;-73
2023/01/18 10:26:20;;;;;;;22.77;7.97;;;3.40;99.90;;;2.30;83.78;98685.03;4995196;28;20124;-71
2023/01/18 10:29:11;;;;;;;13.48;7.45;;;3.70;99.90;;;2.72;82.38;98688.22;4990786;28;20050;-71
2023/01/18 10:31:57;;;;;;;12.32;7.25;;;4.20;99.90;;;2.99;75.68;98680.03;4999368;28;20053;-72
2023/01/18 10:34:33;;;;;;;14.93;7.13;;;4.50;99.90;;;3.57;72.14;98674.66;4995285;28;20070;-72
2023/01/18 10:37:22;;;;;;;14.38;7.15;;;4.90;99.90;;;3.86;68.84;98670.47;4994982;28;20124;-72
2023/01/18 10:39:57;;;;;;;13.88;7.45;;;5.20;99.90;;;4.15;67.34;98670.81;4995325;28;20526;-72
2023/01/18 10:42:36;;;;;;;14.02;7.30;;;5.40;99.90;;;4.84;65.28;98685.25;5004891;28;20038;-73
2023/01/18 10:45:02;;;;;;;12.35;7.32;;;5.90;99.90;;;5.31;60.43;98666.50;4994281;28;20085;-73
2023/01/18 10:47:28;;;;;;;14.50;7.93;;;6.40;99.90;;;5.29;59.34;98673.19;4994524;28;20066;-73
2023/01/18 10:49:58;;;;;;;15.32;7.65;;;6.80;99.90;;;5.39;59.62;98670.75;4994720;28;20045;-73
2023/01/18 10:52:30;;;;;;;15.00;7.72;;;7.20;99.90;;;4.61;61.51;98676.75;5009434;28;20040;-72